Time;durP1;ratioP1;P1;durP2;ratioP2;P2;SDS_P1;SDS_P2;PMS_P1;PMS_P2;Temp;Humidity;BMP_temperature;BMP_pressure;BME280_temperature;BME280_humidity;BME280_pressure;Samples;Min_cycle;Max_cycle;Signal;HPM_P1;HPM_P2
2022/12/23 00:00:36;;;;;;;0.25;0.20;;;;;;;8.11;100.00;92131.41;2067691;28;20066;-82
2022/12/23 00:01:37;;;;;;;0.17;0.17;;;;;;;8.05;100.00;92126.59;2072224;28;20032;-82
2022/12/23 00:02:38;;;;;;;0.25;0.20;;;;;;;7.89;100.00;92137.31;2071801;28;20025;-82
2022/12/23 00:03:39;;;;;;;0.17;0.10;;;;;;;7.99;100.00;92130.97;2072536;28;20487;-82
2022/12/23 00:04:40;;;;;;;0.10;0.10;;;;;;;8.02;100.00;92124.78;2072234;28;20491;-82
2022/12/23 00:05:41;;;;;;;0.63;0.20;;;;;;;7.95;100.00;92117.00;2072098;28;20041;-83
2022/12/23 00:06:42;;;;;;;0.50;0.32;;;;;;;7.91;100.00;92127.00;2081115;28;20134;-82
2022/12/23 00:07:43;;;;;;;1.17;0.28;;;;;;;7.83;100.00;92128.38;2089051;28;20017;-82
2022/12/23 00:08:45;;;;;;;2.45;0.20;;;;;;;7.88;100.00;92122.53;2074905;28;20022;-82
2022/12/23 00:09:46;;;;;;;0.43;0.22;;;;;;;7.94;100.00;92128.06;2075395;28;20100;-82
2022/12/23 00:10:49;;;;;;;0.30;0.20;;;;;;;8.18;100.00;92145.25;2072875;28;20575;-81
2022/12/23 00:15:04;;;;;;;0.90;0.20;;;;;;;8.10;100.00;92135.22;2081196;28;20458;-82
2022/12/23 00:15:59;;;;;;;1.27;0.20;;;;;;;8.03;100.00;92128.94;2087523;28;20145;-82
2022/12/23 00:17:00;;;;;;;0.20;0.20;;;;;;;8.04;100.00;92137.69;2086559;28;20020;-82
2022/12/23 00:18:01;;;;;;;0.10;0.10;;;;;;;7.95;100.00;92132.97;2083335;28;20417;-82
2022/12/23 00:19:09;;;;;;;0.10;0.10;;;;;;;7.99;100.00;92130.97;2078960;28;20059;-82
2022/12/23 00:20:13;;;;;;;0.20;0.10;;;;;;;8.23;100.00;92125.34;2071577;28;20027;-82
2022/12/23 00:21:16;;;;;;;0.35;0.17;;;;;;;8.11;100.00;92131.41;2081551;28;20056;-82
2022/12/23 00:22:17;;;;;;;0.15;0.15;;;;;;;8.17;100.00;92132.38;2081428;28;20018;-82
2022/12/23 00:23:18;;;;;;;0.35;0.20;;;;;;;8.00;100.00;92126.38;2075299;28;20463;-82
2022/12/23 00:24:19;;;;;;;1.10;0.32;;;;;;;7.95;100.00;92121.59;2087694;28;20020;-82
2022/12/23 00:25:38;;;;;;;0.63;0.10;;;;;;;8.05;100.00;92131.94;2085458;28;20492;-82
2022/12/23 00:26:39;;;;;;;0.20;0.20;;;;;;;8.04;100.00;92135.75;2084122;28;20029;-83
2022/12/23 00:27:41;;;;;;;0.10;0.10;;;;;;;7.98;100.00;92121.47;2087283;28;20401;-83
2022/12/23 00:28:42;;;;;;;0.98;0.10;;;;;;;7.99;100.00;92127.53;2073312;28;20018;-83
2022/12/23 00:29:43;;;;;;;0.63;0.30;;;;;;;7.96;100.00;92129.13;2075106;28;20022;-82
2022/12/23 00:30:48;;;;;;;0.15;0.15;;;;;;;7.89;100.00;92117.94;2074873;28;20056;-83
2022/12/23 00:31:49;;;;;;;0.47;0.20;;;;;;;8.02;100.00;92121.38;2078378;28;20063;-83
2022/12/23 00:32:50;;;;;;;0.82;0.28;;;;;;;8.30;100.00;92133.13;2077678;28;20022;-83
2022/12/23 00:33:53;;;;;;;0.20;0.20;;;;;;;8.24;100.00;92126.84;2077151;28;20107;-82
2022/12/23 00:34:53;;;;;;;0.35;0.20;;;;;;;8.33;100.00;92137.59;2071392;28;20025;-82
2022/12/23 00:35:56;;;;;;;0.10;0.10;;;;;;;8.16;100.00;92112.97;2078231;28;20021;-83
2022/12/23 00:36:57;;;;;;;0.30;0.20;;;;;;;8.21;100.00;92123.13;2071382;28;20022;-83
2022/12/23 00:37:58;;;;;;;0.10;0.10;;;;;;;8.38;100.00;92133.69;2073392;28;20092;-83
2022/12/23 00:43:00;;;;;;;0.10;0.10;;;;;;;8.25;100.00;92129.09;2097680;28;20474;-82
2022/12/23 00:44:02;;;;;;;0.20;0.10;;;;;;;8.13;100.00;92129.81;2087598;28;20063;-83
2022/12/23 00:45:14;;;;;;;0.20;0.20;;;;;;;8.34;100.00;92120.47;2069374;28;20053;-82
2022/12/23 00:46:15;;;;;;;0.13;0.13;;;;;;;8.34;100.00;92123.13;2073722;28;20026;-83
2022/12/23 00:50:11;;;;;;;0.52;0.20;;;;;;;8.26;100.00;92125.25;2052934;28;20533;-82
2022/12/23 00:51:12;;;;;;;0.10;0.10;;;;;;;8.19;100.00;92122.78;2048562;29;20358;-83
2022/12/23 00:52:14;;;;;;;0.80;0.10;;;;;;;8.31;100.00;92130.03;2048076;28;20976;-82
2022/12/23 00:53:15;;;;;;;0.73;0.15;;;;;;;8.34;100.00;92141.78;2071464;28;20018;-83
2022/12/23 00:54:17;;;;;;;0.10;0.10;;;;;;;8.14;100.00;92143.88;2081033;28;20021;-82
2022/12/23 00:55:18;;;;;;;0.50;0.20;;;;;;;8.14;100.00;92141.94;2079189;28;20371;-82
2022/12/23 00:56:18;;;;;;;0.10;0.10;;;;;;;8.21;100.00;92141.75;2077550;28;20165;-83
2022/12/23 00:57:19;;;;;;;0.30;0.13;;;;;;;8.12;100.00;92138.97;2086634;28;20021;-83
2022/12/23 00:58:21;;;;;;;0.10;0.10;;;;;;;8.03;100.00;92136.94;2094178;28;20103;-82
2022/12/23 00:59:21;;;;;;;1.45;0.10;;;;;;;8.05;100.00;92147.16;2079045;28;20030;-83
2022/12/23 01:05:35;;;;;;;0.10;0.10;;;;;;;8.39;100.00;92143.94;2079074;28;20025;-83
2022/12/23 01:05:43;;;;;;;0.17;0.17;;;;;;;8.49;100.00;92144.78;2090976;28;20019;-83
2022/12/23 01:06:43;;;;;;;0.45;0.20;;;;;;;8.42;100.00;92152.97;2078911;28;20051;-83
2022/12/23 01:07:45;;;;;;;1.33;0.20;;;;;;;8.22;100.00;92159.22;2072844;28;20481;-83
2022/12/23 01:08:46;;;;;;;0.15;0.15;;;;;;;8.27;100.00;92156.03;2065245;28;20496;-83
2022/12/23 01:09:47;;;;;;;0.75;0.20;;;;;;;8.15;100.00;92146.09;2087157;28;20056;-82
2022/12/23 01:10:47;;;;;;;0.30;0.20;;;;;;;8.21;100.00;92157.72;2086991;28;20017;-83
2022/12/23 01:11:48;;;;;;;0.20;0.20;;;;;;;8.31;100.00;92156.66;2073808;28;20052;-82
2022/12/23 01:12:50;;;;;;;0.17;0.17;;;;;;;8.21;100.00;92149.75;2081020;28;20105;-82
2022/12/23 01:13:51;;;;;;;0.10;0.10;;;;;;;8.47;100.00;92147.88;2086547;28;20067;-83
2022/12/23 01:14:52;;;;;;;0.50;0.13;;;;;;;8.39;100.00;92162.56;2075800;28;20533;-83
2022/12/23 01:16:05;;;;;;;0.20;0.20;;;;;;;8.31;100.00;92155.94;2086294;28;20108;-82
2022/12/23 01:17:07;;;;;;;0.20;0.20;;;;;;;8.30;100.00;92149.13;2085749;28;20018;-83
2022/12/23 01:18:08;;;;;;;0.10;0.10;;;;;;;8.70;100.00;92138.06;2085236;28;20071;-83
2022/12/23 01:19:09;;;;;;;1.63;0.40;;;;;;;8.78;100.00;92142.75;2077695;28;20095;-82
2022/12/23 01:20:11;;;;;;;0.10;0.10;;;;;;;8.62;100.00;92150.13;2070839;28;20363;-82
2022/12/23 01:21:12;;;;;;;0.30;0.20;;;;;;;8.56;100.00;92158.66;2075002;28;20013;-83
2022/12/23 01:22:13;;;;;;;0.40;0.20;;;;;;;8.57;100.00;92151.41;2074887;28;20036;-83
2022/12/23 01:23:14;;;;;;;0.35;0.10;;;;;;;8.48;100.00;92144.03;2076340;28;20021;-83
2022/12/23 01:24:15;;;;;;;0.30;0.20;;;;;;;8.37;100.00;92145.50;2077102;28;20452;-83
2022/12/23 01:25:16;;;;;;;0.55;0.10;;;;;;;8.23;100.00;92151.97;2080648;28;20117;-83
2022/12/23 01:26:17;;;;;;;0.10;0.10;;;;;;;8.48;100.00;92152.03;2076890;28;20116;-82
2022/12/23 01:27:18;;;;;;;0.17;0.17;;;;;;;8.26;100.00;92164.44;2077216;28;20021;-82
2022/12/23 01:28:19;;;;;;;0.20;0.20;;;;;;;8.28;100.00;92168.16;2088428;28;20094;-82
2022/12/23 01:29:20;;;;;;;0.95;0.40;;;;;;;8.51;100.00;92161.81;2079383;28;20470;-83
2022/12/23 01:30:21;;;;;;;0.10;0.10;;;;;;;8.57;100.00;92168.13;2070912;28;20113;-83
2022/12/23 01:31:24;;;;;;;0.20;0.20;;;;;;;8.56;100.00;92161.31;2081263;28;20022;-82
2022/12/23 01:32:25;;;;;;;0.17;0.10;;;;;;;8.70;100.00;92162.06;2085850;28;20494;-82
2022/12/23 01:33:26;;;;;;;0.10;0.10;;;;;;;8.53;100.00;92161.41;2086835;28;20029;-83
2022/12/23 01:34:28;;;;;;;0.10;0.10;;;;;;;8.36;100.00;92170.63;2086414;28;20383;-83
2022/12/23 01:35:29;;;;;;;0.10;0.10;;;;;;;8.57;100.00;92172.69;2091072;28;20091;-81
2022/12/23 01:36:30;;;;;;;0.15;0.15;;;;;;;8.38;100.00;92170.97;2078774;28;20176;-83
2022/12/23 01:37:30;;;;;;;0.20;0.20;;;;;;;8.39;100.00;92169.81;2072674;28;20122;-83
2022/12/23 01:38:32;;;;;;;0.28;0.28;;;;;;;8.29;100.00;92164.31;2076457;28;20013;-83
2022/12/23 01:39:33;;;;;;;0.20;0.10;;;;;;;8.14;100.00;92165.91;2074577;28;20149;-83
2022/12/23 01:40:35;;;;;;;0.10;0.10;;;;;;;8.01;100.00;92170.44;2080791;28;20021;-83
2022/12/23 01:42:57;;;;;;;0.30;0.20;;;;;;;8.20;100.00;92166.84;2085768;28;20022;-83
2022/12/23 01:43:57;;;;;;;0.90;0.10;;;;;;;8.22;100.00;92172.53;2086811;28;20445;-83
2022/12/23 01:45:01;;;;;;;0.08;0.08;;;;;;;8.18;100.00;92173.78;2078603;28;20028;-83
2022/12/23 01:46:02;;;;;;;0.10;0.10;;;;;;;8.24;100.00;92172.09;2085311;28;20018;-83
2022/12/23 01:47:09;;;;;;;0.10;0.10;;;;;;;8.11;100.00;92177.38;2095122;28;20836;-83
2022/12/23 01:48:24;;;;;;;1.10;0.20;;;;;;;7.97;100.00;92172.47;2080471;28;20029;-83
2022/12/23 01:49:24;;;;;;;0.10;0.10;;;;;;;7.92;100.00;92168.41;2079444;28;20026;-82
2022/12/23 01:50:36;;;;;;;0.10;0.10;;;;;;;7.85;100.00;92157.19;2075548;28;20474;-83
2022/12/23 01:51:37;;;;;;;0.15;0.10;;;;;;;8.00;100.00;92168.97;2082483;28;20018;-83
2022/12/23 01:53:05;;;;;;;0.45;0.10;;;;;;;7.92;100.00;92165.75;2080662;28;20021;-83
2022/12/23 01:54:06;;;;;;;0.10;0.10;;;;;;;8.30;100.00;92165.84;2084327;28;20086;-83
2022/12/23 01:55:08;;;;;;;0.10;0.10;;;;;;;8.37;100.00;92169.47;2086899;28;20075;-83
2022/12/23 01:56:33;;;;;;;0.77;0.10;;;;;;;8.22;100.00;92174.44;2076651;28;20465;-83
2022/12/23 01:57:38;;;;;;;0.10;0.10;;;;;;;8.18;100.00;92181.78;2085668;28;20017;-83
2022/12/23 01:58:56;;;;;;;0.10;0.10;;;;;;;8.13;100.00;92177.72;2081918;28;20119;-83
2022/12/23 02:04:04;;;;;;;0.20;0.10;;;;;;;8.51;100.00;92169.06;2094853;28;20020;-84
2022/12/23 02:05:05;;;;;;;2.55;0.10;;;;;;;8.40;100.00;92185.34;2085077;28;20021;-83
2022/12/23 02:10:09;;;;;;;0.08;0.08;;;;;;;8.38;100.00;92190.34;2092256;28;20415;-83
2022/12/23 02:11:38;;;;;;;0.10;0.10;;;;;;;8.39;100.00;92185.78;2077668;28;20030;-82
2022/12/23 02:12:44;;;;;;;0.10;0.10;;;;;;;8.52;100.00;92192.63;2076897;28;20116;-83
2022/12/23 02:17:47;;;;;;;;;;;;;;;8.35;100.00;92183.19;2145878;27;20173;-82
2022/12/23 02:19:11;;;;;;;0.10;0.10;;;;;;;8.23;100.00;92189.25;2121402;27;20380;-82
2022/12/23 02:20:18;;;;;;;0.10;0.10;;;;;;;8.09;100.00;92177.06;2113925;27;20029;-82
2022/12/23 02:21:30;;;;;;;0.08;0.08;;;;;;;8.12;100.00;92192.22;2110190;27;20028;-82
2022/12/23 02:22:58;;;;;;;0.10;0.10;;;;;;;8.18;100.00;92203.81;2109977;28;20023;-82
2022/12/23 02:24:41;;;;;;;0.10;0.10;;;;;;;8.47;100.00;92201.13;2113809;27;20463;-82
2022/12/23 02:26:02;;;;;;;0.10;0.10;;;;;;;8.47;100.00;92201.13;2119454;27;20034;-82
2022/12/23 02:27:03;;;;;;;0.10;0.10;;;;;;;8.36;100.00;92211.31;2104837;27;20031;-83
2022/12/23 02:28:26;;;;;;;0.25;0.10;;;;;;;8.55;100.00;92197.09;2133273;27;20038;-82
2022/12/23 02:29:57;;;;;;;0.10;0.10;;;;;;;8.30;100.00;92197.03;2133815;27;20029;-82
2022/12/23 02:31:27;;;;;;;0.10;0.10;;;;;;;8.35;100.00;92201.09;2131870;27;20046;-82
2022/12/23 02:32:46;;;;;;;0.10;0.10;;;;;;;8.56;100.00;92213.84;2105236;27;20353;-82
2022/12/23 02:34:08;;;;;;;0.38;0.10;;;;;;;8.64;100.00;92209.03;2121952;27;20046;-82
2022/12/23 02:35:26;;;;;;;0.85;0.10;;;;;;;8.51;100.00;92201.75;2124232;27;20064;-82
2022/12/23 02:37:20;;;;;;;0.10;0.10;;;;;;;8.64;100.00;92209.03;2123171;27;20023;-82
2022/12/23 02:38:48;;;;;;;0.10;0.10;;;;;;;8.53;100.00;92204.03;2097092;28;20021;-82
2022/12/23 02:40:01;;;;;;;0.15;0.15;;;;;;;8.39;100.00;92201.75;2063295;28;20042;-82
2022/12/23 02:41:18;;;;;;;0.10;0.10;;;;;;;8.43;100.00;92203.16;2078100;28;20109;-82
2022/12/23 02:42:29;;;;;;;0.10;0.10;;;;;;;8.38;100.00;92210.91;2087065;28;20029;-82
2022/12/23 02:43:54;;;;;;;0.20;0.20;;;;;;;8.71;100.00;92204.25;2098818;27;20025;-81
2022/12/23 02:45:02;;;;;;;0.10;0.10;;;;;;;8.66;100.00;92204.03;2128521;27;20040;-82
2022/12/23 02:46:35;;;;;;;0.20;0.20;;;;;;;8.79;100.00;92196.78;2125642;27;20019;-81
2022/12/23 02:47:49;;;;;;;0.10;0.10;;;;;;;8.52;100.00;92203.28;2123670;27;20039;-82
2022/12/23 02:49:05;;;;;;;0.10;0.10;;;;;;;8.73;100.00;92201.13;2122435;27;20019;-82
2022/12/23 02:50:15;;;;;;;0.20;0.10;;;;;;;8.56;100.00;92192.53;2121051;27;20103;-82
2022/12/23 02:51:21;;;;;;;0.10;0.10;;;;;;;8.60;100.00;92203.78;2126166;27;20372;-82
2022/12/23 02:52:29;;;;;;;0.15;0.15;;;;;;;8.45;100.00;92194.72;2126894;27;20027;-81
2022/12/23 02:53:38;;;;;;;0.10;0.10;;;;;;;8.53;100.00;92194.09;2116321;28;20496;-82
2022/12/23 02:54:45;;;;;;;0.10;0.10;;;;;;;8.70;100.00;92204.69;2116411;28;20508;-82
2022/12/23 02:55:49;;;;;;;0.10;0.10;;;;;;;8.64;100.00;92201.78;2109610;28;20028;-82
2022/12/23 02:56:52;;;;;;;0.10;0.10;;;;;;;8.52;100.00;92197.94;2115686;27;20020;-81
2022/12/23 02:57:56;;;;;;;0.10;0.10;;;;;;;8.54;100.00;92213.50;2116984;27;20027;-81
2022/12/23 02:59:08;;;;;;;0.10;0.10;;;;;;;8.45;100.00;92208.06;2117545;28;20491;-82
2022/12/23 03:00:11;;;;;;;0.10;0.10;;;;;;;8.64;100.00;92220.41;2114712;27;20020;-81
2022/12/23 03:01:15;;;;;;;0.10;0.10;;;;;;;8.77;100.00;92207.13;2121157;27;20023;-81
2022/12/23 03:02:16;;;;;;;2.70;0.15;;;;;;;8.74;100.00;92221.31;2119004;28;20023;-81
2022/12/23 03:03:19;;;;;;;0.10;0.10;;;;;;;8.83;100.00;92210.75;2107519;28;20026;-82
2022/12/23 03:04:20;;;;;;;0.10;0.10;;;;;;;8.98;100.00;92211.81;2116760;27;20022;-83
2022/12/23 03:05:22;;;;;;;0.10;0.10;;;;;;;8.94;100.00;92215.75;2125008;27;20030;-82
2022/12/23 03:06:38;;;;;;;1.27;0.20;;;;;;;8.79;100.00;92215.44;2119872;27;20106;-82
2022/12/23 03:07:41;;;;;;;0.15;0.15;;;;;;;8.61;100.00;92221.28;2120037;27;20020;-83
2022/12/23 03:08:44;;;;;;;0.10;0.10;;;;;;;8.46;100.00;92218.28;2114385;28;20012;-81
2022/12/23 03:10:17;;;;;;;0.10;0.10;;;;;;;8.67;100.00;92227.56;2109446;28;20139;-83
2022/12/23 03:11:18;;;;;;;0.20;0.20;;;;;;;8.61;100.00;92231.19;2114693;27;20015;-82
2022/12/23 03:12:50;;;;;;;0.45;0.20;;;;;;;8.50;100.00;92226.91;2115599;27;20020;-83
2022/12/23 03:14:09;;;;;;;0.10;0.10;;;;;;;8.36;100.00;92229.94;2121095;27;20399;-82
2022/12/23 03:15:19;;;;;;;0.30;0.30;;;;;;;8.56;100.00;92238.53;2115032;27;20016;-82
2022/12/23 03:16:44;;;;;;;0.10;0.10;;;;;;;8.67;100.00;92242.81;2121199;27;20114;-82
2022/12/23 03:17:48;;;;;;;0.22;0.10;;;;;;;8.41;100.00;92242.03;2122073;27;20043;-82
2022/12/23 03:19:02;;;;;;;0.20;0.10;;;;;;;8.41;100.00;92242.75;2109059;27;20441;-82
2022/12/23 03:20:25;;;;;;;0.32;0.10;;;;;;;8.63;100.00;92236.84;2118856;27;20036;-82
2022/12/23 03:21:44;;;;;;;0.13;0.10;;;;;;;8.73;100.00;92239.19;2113453;27;20519;-82
2022/12/23 03:23:04;;;;;;;0.30;0.20;;;;;;;8.66;100.00;92242.06;2117211;27;20081;-83
2022/12/23 03:24:21;;;;;;;4.28;0.55;;;;;;;8.63;100.00;92244.84;2120456;27;20032;-83
2022/12/23 03:25:25;;;;;;;0.10;0.10;;;;;;;8.69;100.00;92257.22;2119422;27;20108;-83
2022/12/23 03:26:48;;;;;;;0.43;0.13;;;;;;;8.71;100.00;92246.88;2116889;28;20026;-83
2022/12/23 03:28:16;;;;;;;0.30;0.10;;;;;;;8.53;100.00;92255.38;2126300;27;20030;-83
2022/12/23 03:29:31;;;;;;;0.22;0.10;;;;;;;8.46;100.00;92249.47;2104497;28;20028;-82
2022/12/23 03:30:34;;;;;;;0.10;0.10;;;;;;;8.39;100.00;92257.69;2108296;27;20016;-82
2022/12/23 03:31:36;;;;;;;0.25;0.20;;;;;;;8.41;100.00;92260.66;2115277;28;20027;-83
2022/12/23 03:32:47;;;;;;;0.15;0.13;;;;;;;8.41;100.00;92255.34;2103684;28;20020;-83
2022/12/23 03:33:56;;;;;;;0.30;0.20;;;;;;;8.45;100.00;92254.06;2103894;28;20017;-83
2022/12/23 03:35:00;;;;;;;0.45;0.20;;;;;;;8.28;100.00;92252.59;2106123;27;20028;-82
2022/12/23 03:36:38;;;;;;;0.10;0.10;;;;;;;8.27;100.00;92251.13;2105235;28;20512;-82
2022/12/23 03:37:45;;;;;;;0.35;0.10;;;;;;;8.25;100.00;92250.78;2111683;27;20035;-83
2022/12/23 03:38:48;;;;;;;2.17;0.30;;;;;;;8.37;100.00;92254.69;2119895;27;20400;-82
2022/12/23 03:40:00;;;;;;;0.20;0.20;;;;;;;8.31;100.00;92251.78;2110991;28;20107;-82
2022/12/23 03:41:06;;;;;;;0.10;0.10;;;;;;;8.21;100.00;92258.88;2102763;28;20021;-82
2022/12/23 03:42:15;;;;;;;2.17;0.20;;;;;;;8.20;100.00;92256.63;2104247;27;20405;-82
2022/12/23 03:43:27;;;;;;;0.10;0.10;;;;;;;8.41;100.00;92253.41;2102327;28;20465;-82
2022/12/23 03:44:36;;;;;;;0.25;0.10;;;;;;;8.39;100.00;92255.03;2115470;27;20022;-83
2022/12/23 03:45:44;;;;;;;0.10;0.10;;;;;;;8.45;100.00;92248.00;2114565;27;20294;-82
2022/12/23 03:47:08;;;;;;;0.10;0.10;;;;;;;8.45;100.00;92246.06;2108280;27;20169;-82
2022/12/23 03:48:18;;;;;;;0.13;0.10;;;;;;;8.40;100.00;92248.53;2111543;27;20027;-82
2022/12/23 03:49:30;;;;;;;0.10;0.10;;;;;;;8.35;100.00;92257.00;2116391;27;20567;-82
2022/12/23 03:50:34;;;;;;;0.10;0.10;;;;;;;8.58;100.00;92254.84;2114310;28;20015;-82
2022/12/23 03:51:48;;;;;;;0.10;0.10;;;;;;;8.71;100.00;92256.78;2119695;27;20027;-82
2022/12/23 03:52:55;;;;;;;0.30;0.15;;;;;;;8.75;100.00;92252.09;2120862;27;20012;-82
2022/12/23 03:54:02;;;;;;;0.30;0.30;;;;;;;8.70;100.00;92249.97;2119573;27;20011;-82
2022/12/23 03:55:06;;;;;;;1.75;0.20;;;;;;;8.76;100.00;92251.66;2120377;27;20130;-82
2022/12/23 03:56:27;;;;;;;0.10;0.10;;;;;;;8.69;100.00;92259.09;2105096;28;20106;-82
2022/12/23 03:57:37;;;;;;;0.10;0.10;;;;;;;8.47;100.00;92249.09;2107950;28;20016;-82
2022/12/23 03:58:41;;;;;;;;;;;;;;;8.38;100.00;92238.28;2107317;27;20563;-83
2022/12/23 03:59:46;;;;;;;0.10;0.10;;;;;;;8.37;100.00;92239.44;2110757;27;19919;-82
2022/12/23 04:00:58;;;;;;;0.10;0.10;;;;;;;8.59;100.00;92252.91;2114401;28;20050;-82
2022/12/23 04:02:33;;;;;;;0.40;0.20;;;;;;;8.55;100.00;92246.94;2113365;27;20089;-82
2022/12/23 04:03:34;;;;;;;0.10;0.10;;;;;;;8.45;100.00;92254.06;2105723;27;20056;-82
2022/12/23 04:05:13;;;;;;;0.38;0.20;;;;;;;8.31;100.00;92246.44;2112545;28;20031;-82
2022/12/23 04:06:16;;;;;;;0.45;0.10;;;;;;;8.24;100.00;92249.28;2096954;27;20562;-82
2022/12/23 04:07:20;;;;;;;0.90;0.20;;;;;;;8.21;100.00;92255.44;2110634;28;20027;-82
2022/12/23 04:08:25;;;;;;;0.10;0.10;;;;;;;8.17;100.00;92257.50;2112814;27;20024;-82
2022/12/23 04:09:27;;;;;;;0.50;0.28;;;;;;;8.03;100.00;92258.59;2101690;28;20063;-82
2022/12/23 04:10:29;;;;;;;1.17;0.20;;;;;;;7.97;100.00;92253.03;2107827;28;20865;-82
2022/12/23 04:11:32;;;;;;;0.10;0.10;;;;;;;7.95;100.00;92263.34;2113099;28;20020;-82
2022/12/23 04:12:33;;;;;;;0.85;0.20;;;;;;;7.90;100.00;92271.84;2112446;28;20020;-82
2022/12/23 04:13:34;;;;;;;0.47;0.10;;;;;;;7.92;100.00;92263.44;2106021;28;20016;-83
2022/12/23 04:14:36;;;;;;;0.13;0.10;;;;;;;7.89;100.00;92261.63;2116879;27;20030;-82
2022/12/23 04:15:42;;;;;;;0.10;0.10;;;;;;;7.89;100.00;92266.94;2118693;27;21670;-82
2022/12/23 04:16:44;;;;;;;0.32;0.20;;;;;;;7.90;100.00;92261.22;2118371;27;20069;-81
2022/12/23 04:17:45;;;;;;;0.10;0.10;;;;;;;7.94;100.00;92272.50;2112788;27;20059;-81
2022/12/23 04:18:46;;;;;;;0.30;0.20;;;;;;;7.96;100.00;92280.06;2116862;27;20479;-82
2022/12/23 04:19:47;;;;;;;0.30;0.10;;;;;;;7.94;100.00;92267.16;2114293;27;20019;-82
2022/12/23 04:20:49;;;;;;;0.10;0.10;;;;;;;7.93;100.00;92267.59;2110093;28;20045;-82
2022/12/23 04:21:50;;;;;;;2.08;0.10;;;;;;;7.88;100.00;92260.13;2108810;28;20023;-82
2022/12/23 04:22:51;;;;;;;0.20;0.20;;;;;;;7.90;100.00;92257.78;2105561;28;20118;-81
2022/12/23 04:23:52;;;;;;;0.32;0.10;;;;;;;7.90;100.00;92260.44;2102361;28;20035;-82
2022/12/23 04:24:53;;;;;;;0.20;0.20;;;;;;;7.84;100.00;92260.22;2107336;28;20480;-82
2022/12/23 04:25:54;;;;;;;0.75;0.20;;;;;;;7.81;100.00;92269.03;2111689;28;20085;-80
2022/12/23 04:26:54;;;;;;;0.40;0.25;;;;;;;7.90;100.00;92269.19;2101282;28;20029;-82
2022/12/23 04:27:56;;;;;;;0.70;0.20;;;;;;;7.85;100.00;92267.03;2108292;28;20023;-82
2022/12/23 04:28:56;;;;;;;0.10;0.10;;;;;;;7.85;100.00;92274.25;2112801;27;20524;-82
2022/12/23 04:29:57;;;;;;;0.30;0.10;;;;;;;7.90;100.00;92279.06;2108438;27;20020;-82
2022/12/23 04:30:58;;;;;;;0.10;0.10;;;;;;;7.89;100.00;92286.31;2104500;28;20107;-81
2022/12/23 04:31:59;;;;;;;1.02;0.20;;;;;;;7.82;100.00;92292.56;2107440;28;20024;-82
2022/12/23 04:33:01;;;;;;;2.30;0.20;;;;;;;7.86;100.00;92281.84;2117856;27;20015;-81
2022/12/23 04:34:02;;;;;;;0.25;0.10;;;;;;;7.88;100.00;92292.81;2111785;27;20015;-82
2022/12/23 04:35:03;;;;;;;0.50;0.20;;;;;;;8.18;100.00;92281.00;2113605;28;20028;-81
2022/12/23 04:36:04;;;;;;;1.38;0.17;;;;;;;8.12;100.00;92282.69;2109479;27;20015;-82
2022/12/23 04:37:05;;;;;;;0.10;0.10;;;;;;;8.08;100.00;92282.03;2113750;28;20055;-82
2022/12/23 04:38:06;;;;;;;0.20;0.10;;;;;;;8.18;100.00;92282.94;2122100;27;20026;-83
2022/12/23 04:39:08;;;;;;;0.80;0.20;;;;;;;8.13;100.00;92283.44;2117049;27;20028;-81
2022/12/23 04:40:09;;;;;;;0.25;0.17;;;;;;;8.09;100.00;92275.56;2118005;27;20379;-82
2022/12/23 04:41:10;;;;;;;0.13;0.10;;;;;;;8.04;100.00;92284.78;2122418;27;20019;-82
2022/12/23 04:42:11;;;;;;;0.10;0.10;;;;;;;8.04;100.00;92274.16;2116422;27;20019;-81
2022/12/23 04:43:12;;;;;;;0.90;0.10;;;;;;;8.04;100.00;92276.06;2114329;28;20062;-82
2022/12/23 04:44:13;;;;;;;0.10;0.10;;;;;;;8.15;100.00;92270.44;2100248;28;20078;-82
2022/12/23 04:45:14;;;;;;;0.10;0.10;;;;;;;8.13;100.00;92265.56;2113902;27;20512;-83
2022/12/23 04:46:15;;;;;;;0.10;0.10;;;;;;;8.04;100.00;92276.81;2112866;28;20051;-82
2022/12/23 04:47:16;;;;;;;0.28;0.10;;;;;;;8.08;100.00;92272.16;2118580;27;20015;-82
2022/12/23 04:48:18;;;;;;;0.10;0.10;;;;;;;8.15;100.00;92275.78;2120425;27;20463;-81
2022/12/23 04:49:19;;;;;;;0.10;0.10;;;;;;;8.17;100.00;92273.47;2108372;27;20443;-81
2022/12/23 04:50:20;;;;;;;0.10;0.10;;;;;;;8.14;100.00;92290.25;2107553;28;20031;-82
2022/12/23 04:51:21;;;;;;;0.85;0.10;;;;;;;8.10;100.00;92295.66;2116424;27;20047;-81
2022/12/23 04:52:22;;;;;;;0.10;0.10;;;;;;;8.02;100.00;92281.78;2119420;27;20027;-82
2022/12/23 04:53:23;;;;;;;0.10;0.10;;;;;;;7.96;100.00;92298.69;2111398;28;20576;-81
2022/12/23 04:54:24;;;;;;;0.10;0.10;;;;;;;7.99;100.00;92290.63;2114226;28;20023;-82
2022/12/23 04:55:25;;;;;;;0.95;0.20;;;;;;;8.02;100.00;92291.69;2117466;27;20105;-82
2022/12/23 04:56:26;;;;;;;0.30;0.10;;;;;;;7.99;100.00;92289.84;2110860;28;20053;-82
2022/12/23 04:57:27;;;;;;;1.35;0.35;;;;;;;7.92;100.00;92287.41;2103660;28;20057;-82
2022/12/23 04:58:28;;;;;;;0.40;0.32;;;;;;;7.94;100.00;92291.13;2105292;28;20024;-82
2022/12/23 04:59:30;;;;;;;1.27;0.28;;;;;;;8.16;100.00;92298.56;2105590;28;20039;-82
2022/12/23 05:00:31;;;;;;;0.10;0.10;;;;;;;8.08;100.00;92287.38;2105718;28;20381;-82
2022/12/23 05:01:32;;;;;;;0.85;0.20;;;;;;;8.06;100.00;92292.34;2112275;27;20027;-82
2022/12/23 05:02:33;;;;;;;0.20;0.10;;;;;;;8.11;100.00;92291.84;2109938;28;20589;-82
2022/12/23 05:03:34;;;;;;;0.22;0.20;;;;;;;8.11;100.00;92289.16;2112763;28;20027;-82
2022/12/23 05:04:35;;;;;;;0.20;0.20;;;;;;;8.12;100.00;92292.56;2111370;28;20030;-80
2022/12/23 05:05:41;;;;;;;0.38;0.10;;;;;;;8.26;100.00;92282.31;2104761;28;20021;-82
2022/12/23 05:06:42;;;;;;;3.70;0.20;;;;;;;8.20;100.00;92273.34;2111402;27;20106;-82
2022/12/23 05:07:43;;;;;;;0.88;0.40;;;;;;;8.13;100.00;92273.53;2107873;28;20021;-81
2022/12/23 05:08:44;;;;;;;0.30;0.30;;;;;;;8.30;100.00;92276.91;2109837;28;20023;-81
2022/12/23 05:09:44;;;;;;;0.75;0.20;;;;;;;8.30;100.00;92275.00;2105309;28;20027;-82
2022/12/23 05:10:45;;;;;;;0.47;0.17;;;;;;;8.23;100.00;92277.84;2107341;28;20481;-82
2022/12/23 05:11:46;;;;;;;0.98;0.13;;;;;;;8.45;100.00;92280.69;2101635;28;20101;-81
2022/12/23 05:12:47;;;;;;;0.20;0.10;;;;;;;8.59;100.00;92279.56;2111951;28;20020;-82
2022/12/23 05:13:48;;;;;;;0.15;0.15;;;;;;;8.50;100.00;92269.53;2101563;28;20023;-82
2022/12/23 05:14:49;;;;;;;0.20;0.20;;;;;;;8.41;100.00;92265.97;2107950;27;20098;-82
2022/12/23 05:15:52;;;;;;;0.20;0.20;;;;;;;8.38;100.00;92264.91;2118305;27;20452;-82
2022/12/23 05:16:53;;;;;;;0.00;0.00;;;;;;;8.45;100.00;92262.06;2110960;28;20034;-81
2022/12/23 05:17:54;;;;;;;0.10;0.10;;;;;;;8.39;100.00;92265.69;2104716;28;20046;-82
2022/12/23 05:18:55;;;;;;;0.20;0.10;;;;;;;8.61;100.00;92265.84;2109771;28;20020;-83
2022/12/23 05:19:56;;;;;;;0.10;0.10;;;;;;;8.83;100.00;92266.72;2118474;27;20069;-83
2022/12/23 05:20:57;;;;;;;0.55;0.15;;;;;;;8.76;100.00;92265.00;2107664;28;20011;-82
2022/12/23 05:21:58;;;;;;;0.10;0.10;;;;;;;8.69;100.00;92267.09;2118172;27;20451;-81
2022/12/23 05:22:59;;;;;;;0.10;0.10;;;;;;;8.68;100.00;92261.03;2120001;27;20051;-81
2022/12/23 05:24:00;;;;;;;0.20;0.20;;;;;;;8.54;100.00;92264.84;2109740;28;20020;-81
2022/12/23 05:25:01;;;;;;;0.30;0.20;;;;;;;8.58;100.00;92262.81;2109786;28;20043;-82
2022/12/23 05:26:02;;;;;;;0.10;0.10;;;;;;;8.58;100.00;92260.16;2109827;28;20019;-82
2022/12/23 05:27:03;;;;;;;0.22;0.10;;;;;;;8.72;100.00;92256.34;2109949;27;20559;-82
2022/12/23 05:28:06;;;;;;;0.10;0.10;;;;;;;8.57;100.00;92264.00;2109756;28;20028;-82
2022/12/23 05:29:07;;;;;;;0.10;0.10;;;;;;;8.50;100.00;92263.44;2108919;27;20101;-83
2022/12/23 05:30:09;;;;;;;0.13;0.13;;;;;;;8.37;100.00;92260.75;2108856;28;20460;-81
2022/12/23 05:31:10;;;;;;;0.10;0.10;;;;;;;8.37;100.00;92266.06;2113076;28;20019;-82
2022/12/23 05:32:11;;;;;;;0.20;0.20;;;;;;;8.44;100.00;92265.91;2112916;28;20417;-81
2022/12/23 05:33:13;;;;;;;1.13;0.10;;;;;;;8.33;100.00;92276.03;2121781;27;20064;-82
2022/12/23 05:34:14;;;;;;;0.10;0.10;;;;;;;8.27;100.00;92273.16;2118449;27;20397;-82
2022/12/23 05:35:15;;;;;;;1.05;0.10;;;;;;;8.25;100.00;92269.41;2105177;28;20031;-82
2022/12/23 05:36:15;;;;;;;0.10;0.10;;;;;;;8.19;100.00;92266.53;2111916;28;20019;-82
2022/12/23 05:37:16;;;;;;;1.45;0.10;;;;;;;8.15;100.00;92265.88;2128662;27;20156;-82
2022/12/23 05:38:17;;;;;;;0.30;0.30;;;;;;;8.31;100.00;92252.50;2117925;27;20020;-82